createdAt,value
2019-05-19T00:00:05.430Z,1006
2019-05-19T00:01:02.231Z,1006
2019-05-19T00:02:02.547Z,1006
2019-05-19T00:03:01.733Z,1005.99
2019-05-19T00:04:01.815Z,1005.99
2019-05-19T00:05:02.785Z,1005.99
2019-05-19T00:06:01.866Z,1005.99
2019-05-19T00:07:02.127Z,1005.76
2019-05-19T00:08:02.690Z,1005.76
2019-05-19T00:09:02.592Z,1005.76
2019-05-19T00:10:02.192Z,1005.76
2019-05-19T00:11:02.082Z,1005.77
2019-05-19T00:12:02.290Z,1005.77
2019-05-19T00:13:02.276Z,1005.77
2019-05-19T00:14:02.508Z,1005.77
2019-05-19T00:15:02.686Z,1005.83
2019-05-19T00:16:02.525Z,1005.83
2019-05-19T00:17:01.847Z,1005.83
2019-05-19T00:18:01.968Z,1005.83
2019-05-19T00:19:02.294Z,1005.77
2019-05-19T00:20:02.430Z,1005.77
2019-05-19T00:21:06.244Z,1005.77
2019-05-19T00:22:01.941Z,1005.77
2019-05-19T00:23:02.228Z,1005.72
2019-05-19T00:24:02.420Z,1005.72
2019-05-19T00:25:02.618Z,1005.72
2019-05-19T00:26:01.897Z,1005.72
2019-05-19T00:27:01.804Z,1005.85
2019-05-19T00:28:02.098Z,1005.85
2019-05-19T00:29:02.348Z,1005.85
2019-05-19T00:30:02.577Z,1005.75
2019-05-19T00:31:01.843Z,1005.75
2019-05-19T00:32:02.068Z,1005.75
2019-05-19T00:33:02.282Z,1005.75
2019-05-19T00:34:02.580Z,1005.81
2019-05-19T00:35:02.312Z,1005.81
2019-05-19T00:36:01.901Z,1005.81
2019-05-19T00:37:02.164Z,1005.81
2019-05-19T00:38:02.394Z,1005.74
2019-05-19T00:39:02.609Z,1005.74
2019-05-19T00:40:01.890Z,1005.74
2019-05-19T00:41:02.092Z,1005.74
2019-05-19T00:42:02.391Z,1005.81
2019-05-19T00:43:02.153Z,1005.81
2019-05-19T00:44:02.437Z,1005.81
2019-05-19T00:45:02.621Z,1005.81
2019-05-19T00:46:01.811Z,1005.71
2019-05-19T00:47:01.813Z,1005.71
2019-05-19T00:48:01.937Z,1005.71
2019-05-19T00:49:02.203Z,1005.71
2019-05-19T00:50:02.584Z,1005.7
2019-05-19T00:51:01.649Z,1005.7
2019-05-19T00:52:01.694Z,1005.7
2019-05-19T00:53:01.907Z,1005.7
2019-05-19T00:54:02.037Z,1005.61
2019-05-19T00:55:02.294Z,1005.61
2019-05-19T00:56:02.486Z,1005.61
2019-05-19T00:57:01.732Z,1005.61
2019-05-19T00:58:02.007Z,1005.55
2019-05-19T00:59:06.828Z,1005.55
2019-05-19T01:00:04.698Z,1005.55
2019-05-19T01:01:02.427Z,1005.55
2019-05-19T01:02:01.733Z,1005.37
2019-05-19T01:03:01.917Z,1005.37
2019-05-19T01:04:02.071Z,1005.37
2019-05-19T01:05:02.244Z,1005.37
2019-05-19T01:06:02.196Z,1005.42
2019-05-19T01:07:02.414Z,1005.42
2019-05-19T01:08:01.663Z,1005.42
2019-05-19T01:09:01.956Z,1005.42
2019-05-19T01:10:02.552Z,1005.42
2019-05-19T01:11:01.685Z,1005.42
2019-05-19T01:12:01.912Z,1005.42
2019-05-19T01:13:02.168Z,1005.42
2019-05-19T01:14:02.383Z,1005.38
2019-05-19T01:15:02.644Z,1005.38
2019-05-19T01:16:02.472Z,1005.38
2019-05-19T01:17:01.853Z,1005.38
2019-05-19T01:18:01.887Z,1005.35
2019-05-19T01:19:02.217Z,1005.35
2019-05-19T01:20:02.504Z,1005.35
2019-05-19T01:21:02.610Z,1005.35
2019-05-19T01:22:01.859Z,1005.27
2019-05-19T01:23:02.037Z,1005.27
2019-05-19T01:24:02.353Z,1005.27
2019-05-19T01:25:02.530Z,1005.27
2019-05-19T01:26:01.741Z,1005.2
2019-05-19T01:27:01.961Z,1005.2
2019-05-19T01:28:02.190Z,1005.2
2019-05-19T01:29:02.426Z,1005.2
2019-05-19T01:30:02.578Z,1005.19
2019-05-19T01:31:01.799Z,1005.19
2019-05-19T01:32:02.004Z,1005.19
2019-05-19T01:33:02.225Z,1005.19
2019-05-19T01:34:02.018Z,1005.17
2019-05-19T01:35:02.199Z,1005.17
2019-05-19T01:36:02.389Z,1005.17
2019-05-19T01:37:02.659Z,1005.17
2019-05-19T01:38:01.767Z,1005.2
2019-05-19T01:39:01.810Z,1005.2
2019-05-19T01:40:02.509Z,1005.2
2019-05-19T01:41:02.239Z,1005.2
2019-05-19T01:42:02.544Z,1005.18
2019-05-19T01:43:01.658Z,1005.18
2019-05-19T01:44:01.913Z,1005.18
2019-05-19T01:45:02.171Z,1005.18
2019-05-19T01:46:02.418Z,1005.17
2019-05-19T01:47:02.559Z,1005.17
2019-05-19T01:48:01.889Z,1005.17
2019-05-19T01:49:01.968Z,1005.17
2019-05-19T01:50:18.855Z,1005.14
2019-05-19T01:51:02.547Z,1005.14
2019-05-19T01:52:01.768Z,1005.14
2019-05-19T01:53:02.069Z,1005.14
2019-05-19T01:54:02.147Z,1005.26
2019-05-19T01:55:02.407Z,1005.26
2019-05-19T01:56:02.662Z,1005.26
2019-05-19T01:57:01.824Z,1005.26
2019-05-19T01:58:01.774Z,1005.09
2019-05-19T01:59:01.979Z,1005.09
2019-05-19T02:00:03.844Z,1005.09
2019-05-19T02:01:02.374Z,1005.09
2019-05-19T02:02:02.620Z,1005.2
2019-05-19T02:03:01.896Z,1005.2
2019-05-19T02:04:02.078Z,1005.2
2019-05-19T02:05:02.438Z,1005.2
2019-05-19T02:06:02.584Z,1005.19
2019-05-19T02:07:01.851Z,1005.19
2019-05-19T02:08:02.104Z,1005.19
2019-05-19T02:09:02.359Z,1005.19
2019-05-19T02:10:03.013Z,1005.24
2019-05-19T02:11:01.818Z,1005.24
2019-05-19T02:12:02.046Z,1005.24
2019-05-19T02:13:05.621Z,1005.11
2019-05-19T02:14:02.538Z,1005.11
2019-05-19T02:15:01.888Z,1005.11
2019-05-19T02:16:02.046Z,1005.11
2019-05-19T02:17:02.410Z,1005.16
2019-05-19T02:18:02.546Z,1005.16
2019-05-19T02:19:01.782Z,1005.16
2019-05-19T02:20:02.194Z,1005.16
2019-05-19T02:21:02.421Z,1005.12
2019-05-19T02:22:02.537Z,1005.12
2019-05-19T02:23:02.519Z,1005.12
2019-05-19T02:24:01.727Z,1005.12
2019-05-19T02:25:01.927Z,1005.17
2019-05-19T02:26:02.162Z,1005.17
2019-05-19T02:27:02.337Z,1005.17
2019-05-19T02:28:02.713Z,1005.17
2019-05-19T02:29:01.861Z,1005.29
2019-05-19T02:30:03.220Z,1005.29
2019-05-19T02:31:02.596Z,1005.29
2019-05-19T02:32:01.749Z,1005.29
2019-05-19T02:33:01.972Z,1005.16
2019-05-19T02:34:02.165Z,1005.16
2019-05-19T02:35:02.377Z,1005.16
2019-05-19T02:36:02.601Z,1005.16
2019-05-19T02:37:01.845Z,1005.26
2019-05-19T02:38:01.962Z,1005.26
2019-05-19T02:39:02.193Z,1005.26
2019-05-19T02:40:02.630Z,1005.26
2019-05-19T02:41:01.857Z,1005.27
2019-05-19T02:42:02.018Z,1005.27
2019-05-19T02:43:02.303Z,1005.27
2019-05-19T02:44:02.545Z,1005.27
2019-05-19T02:45:01.816Z,1005.36
2019-05-19T02:46:02.135Z,1005.36
2019-05-19T02:47:02.352Z,1005.36
2019-05-19T02:48:02.504Z,1005.36
2019-05-19T02:49:01.765Z,1005.25
2019-05-19T02:50:02.110Z,1005.25
2019-05-19T02:51:02.268Z,1005.25
2019-05-19T02:52:02.401Z,1005.25
2019-05-19T02:53:02.660Z,1005.28
2019-05-19T02:54:01.888Z,1005.28
2019-05-19T02:55:02.181Z,1005.28
2019-05-19T02:56:01.688Z,1005.28
2019-05-19T02:57:01.941Z,1005.29
2019-05-19T02:58:02.127Z,1005.29
2019-05-19T02:59:02.344Z,1005.29
2019-05-19T03:00:02.612Z,1005.29
2019-05-19T03:01:01.842Z,1005.3
2019-05-19T03:02:02.017Z,1005.3
2019-05-19T03:03:02.298Z,1005.3
2019-05-19T03:04:02.400Z,1005.3
2019-05-19T03:05:02.651Z,1005.16
2019-05-19T03:06:01.903Z,1005.16
2019-05-19T03:07:02.161Z,1005.16
2019-05-19T03:08:02.145Z,1005.16
2019-05-19T03:09:02.348Z,1005.2
2019-05-19T03:10:02.411Z,1005.2
2019-05-19T03:11:02.628Z,1005.2
2019-05-19T03:12:01.756Z,1005.2
2019-05-19T03:13:01.967Z,1005.13
2019-05-19T03:14:02.149Z,1005.13
2019-05-19T03:15:02.514Z,1005.13
2019-05-19T03:16:02.609Z,1005.13
2019-05-19T03:17:01.870Z,1005.26
2019-05-19T03:18:02.142Z,1005.26
2019-05-19T03:19:02.330Z,1005.26
2019-05-19T03:20:02.725Z,1005.26
2019-05-19T03:21:12.332Z,1005.33
2019-05-19T03:22:01.979Z,1005.33
2019-05-19T03:23:02.211Z,1005.33
2019-05-19T03:24:02.446Z,1005.33
2019-05-19T03:25:01.841Z,1005.22
2019-05-19T03:26:02.084Z,1005.22
2019-05-19T03:27:02.184Z,1005.22
2019-05-19T03:28:02.500Z,1005.22
2019-05-19T03:29:02.619Z,1005.15
2019-05-19T03:30:02.151Z,1005.15
2019-05-19T03:31:02.246Z,1005.15
2019-05-19T03:32:02.569Z,1005.15
2019-05-19T03:33:02.431Z,1005.24
2019-05-19T03:34:01.662Z,1005.24
2019-05-19T03:35:02.114Z,1005.24
2019-05-19T03:36:02.112Z,1005.24
2019-05-19T03:37:02.123Z,1005.14
2019-05-19T03:38:02.345Z,1005.14
2019-05-19T03:39:02.581Z,1005.14
2019-05-19T03:40:01.966Z,1005.14
2019-05-19T03:41:02.067Z,1005.27
2019-05-19T03:42:01.884Z,1005.27
2019-05-19T03:43:02.090Z,1005.27
2019-05-19T03:44:02.246Z,1005.27
2019-05-19T03:45:02.488Z,1005.23
2019-05-19T03:46:01.713Z,1005.23
2019-05-19T03:47:01.958Z,1005.23
2019-05-19T03:48:02.122Z,1005.23
2019-05-19T03:49:02.336Z,1005.16
2019-05-19T03:50:02.629Z,1005.16
2019-05-19T03:51:01.830Z,1005.16
2019-05-19T03:52:02.024Z,1005.16
2019-05-19T03:53:01.929Z,1005.17
2019-05-19T03:54:02.297Z,1005.17
2019-05-19T03:55:02.459Z,1005.17
2019-05-19T03:56:02.582Z,1005.22
2019-05-19T03:57:01.832Z,1005.22
2019-05-19T03:58:02.042Z,1005.22
2019-05-19T03:59:02.392Z,1005.22
2019-05-19T04:00:04.487Z,1005.27
2019-05-19T04:01:02.374Z,1005.27
2019-05-19T04:02:02.505Z,1005.27
2019-05-19T04:03:01.826Z,1005.27
2019-05-19T04:04:01.988Z,1005.26
2019-05-19T04:05:02.473Z,1005.26
2019-05-19T04:06:02.454Z,1005.26
2019-05-19T04:07:01.633Z,1005.26
2019-05-19T04:08:01.827Z,1005.22
2019-05-19T04:09:02.047Z,1005.22
2019-05-19T04:10:02.299Z,1005.22
2019-05-19T04:11:02.561Z,1005.22
2019-05-19T04:12:01.700Z,1005.3
2019-05-19T04:13:02.049Z,1005.3
2019-05-19T04:14:02.126Z,1005.3
2019-05-19T04:15:02.438Z,1005.3
2019-05-19T04:16:02.569Z,1005.19
2019-05-19T04:17:01.665Z,1005.19
2019-05-19T04:18:01.960Z,1005.19
2019-05-19T04:19:01.871Z,1005.19
2019-05-19T04:20:02.192Z,1005.13
2019-05-19T04:21:02.416Z,1005.13
2019-05-19T04:22:02.519Z,1005.13
2019-05-19T04:23:01.851Z,1005.13
2019-05-19T04:24:02.022Z,1005.17
2019-05-19T04:25:02.420Z,1005.17
2019-05-19T04:26:02.499Z,1005.17
2019-05-19T04:27:01.693Z,1005.17
2019-05-19T04:28:01.944Z,1005.2
2019-05-19T04:29:02.175Z,1005.2
2019-05-19T04:30:02.444Z,1005.2
2019-05-19T04:31:01.765Z,1005.2
2019-05-19T04:32:01.929Z,1005.28
2019-05-19T04:33:02.131Z,1005.28
2019-05-19T04:34:02.369Z,1005.28
2019-05-19T04:35:01.750Z,1005.28
2019-05-19T04:36:01.980Z,1005.18
2019-05-19T04:37:02.277Z,1005.18
2019-05-19T04:38:02.499Z,1005.18
2019-05-19T04:39:01.666Z,1005.18
2019-05-19T04:40:01.935Z,1005.07
2019-05-19T04:41:02.136Z,1005.07
2019-05-19T04:42:02.415Z,1005.07
2019-05-19T04:43:02.624Z,1005.07
2019-05-19T04:44:01.744Z,1005.15
2019-05-19T04:45:02.045Z,1005.15
2019-05-19T04:46:02.288Z,1005.15
2019-05-19T04:47:02.576Z,1005.15
2019-05-19T04:48:01.817Z,1005.24
2019-05-19T04:49:02.147Z,1005.24
2019-05-19T04:50:02.430Z,1005.24
2019-05-19T04:51:01.682Z,1005.24
2019-05-19T04:52:07.714Z,1005.25
2019-05-19T04:53:02.553Z,1005.25
2019-05-19T04:54:01.867Z,1005.25
2019-05-19T04:55:02.075Z,1005.25
2019-05-19T04:56:02.259Z,1005.33
2019-05-19T04:57:02.508Z,1005.33
2019-05-19T04:58:01.681Z,1005.33
2019-05-19T04:59:02.068Z,1005.33
2019-05-19T05:00:05.336Z,1005.28
2019-05-19T05:01:02.153Z,1005.28
2019-05-19T05:02:02.338Z,1005.28
2019-05-19T05:03:02.601Z,1005.28
2019-05-19T05:04:01.874Z,1005.32
2019-05-19T05:05:02.240Z,1005.32
2019-05-19T05:06:02.409Z,1005.32
2019-05-19T05:07:02.587Z,1005.32
2019-05-19T05:08:01.886Z,1005.29
2019-05-19T05:09:02.097Z,1005.29
2019-05-19T05:10:02.419Z,1005.29
2019-05-19T05:11:02.654Z,1005.29
2019-05-19T05:12:01.830Z,1005.37
2019-05-19T05:13:02.034Z,1005.37
2019-05-19T05:14:02.224Z,1005.37
2019-05-19T05:15:02.561Z,1005.37
2019-05-19T05:16:02.347Z,1005.28
2019-05-19T05:17:02.424Z,1005.28
2019-05-19T05:18:01.745Z,1005.28
2019-05-19T05:19:02.641Z,1005.28
2019-05-19T05:20:01.846Z,1005.35
2019-05-19T05:21:02.044Z,1005.35
2019-05-19T05:22:02.273Z,1005.35
2019-05-19T05:23:02.515Z,1005.35
2019-05-19T05:24:01.699Z,1005.38
2019-05-19T05:25:01.751Z,1005.38
2019-05-19T05:26:01.916Z,1005.38
2019-05-19T05:27:02.145Z,1005.38
2019-05-19T05:28:02.304Z,1005.36
2019-05-19T05:29:02.490Z,1005.36
2019-05-19T05:30:02.731Z,1005.36
2019-05-19T05:31:01.827Z,1005.36
2019-05-19T05:32:05.603Z,1005.34
2019-05-19T05:33:02.246Z,1005.34
2019-05-19T05:34:02.411Z,1005.34
2019-05-19T05:35:01.769Z,1005.34
2019-05-19T05:36:01.980Z,1005.45
2019-05-19T05:37:02.189Z,1005.45
2019-05-19T05:38:02.354Z,1005.45
2019-05-19T05:39:02.493Z,1005.47
2019-05-19T05:40:01.817Z,1005.47
2019-05-19T05:41:02.086Z,1005.47
2019-05-19T05:42:02.311Z,1005.47
2019-05-19T05:43:02.070Z,1005.56
2019-05-19T05:44:02.163Z,1005.56
2019-05-19T05:45:02.407Z,1005.56
2019-05-19T05:46:01.771Z,1005.56
2019-05-19T05:47:01.921Z,1005.69
2019-05-19T05:48:02.306Z,1005.69
2019-05-19T05:49:02.300Z,1005.69
2019-05-19T05:50:02.544Z,1005.69
2019-05-19T05:51:01.804Z,1005.66
2019-05-19T05:52:02.001Z,1005.66
2019-05-19T05:53:02.232Z,1005.66
2019-05-19T05:54:02.380Z,1005.66
2019-05-19T05:55:02.671Z,1005.63
2019-05-19T05:56:02.679Z,1005.63
2019-05-19T05:57:01.895Z,1005.63
2019-05-19T05:58:02.037Z,1005.63
2019-05-19T05:59:02.202Z,1005.7
2019-05-19T06:00:04.067Z,1005.7
2019-05-19T06:01:01.912Z,1005.7
2019-05-19T06:02:02.112Z,1005.7
2019-05-19T06:03:02.555Z,1005.74
2019-05-19T06:04:02.580Z,1005.74
2019-05-19T06:05:02.600Z,1005.74
2019-05-19T06:06:01.821Z,1005.74
2019-05-19T06:07:02.123Z,1005.81
2019-05-19T06:08:02.353Z,1005.81
2019-05-19T06:09:02.540Z,1005.81
2019-05-19T06:10:01.819Z,1005.81
2019-05-19T06:11:02.041Z,1005.84
2019-05-19T06:12:02.304Z,1005.84
2019-05-19T06:13:02.589Z,1005.84
2019-05-19T06:14:01.668Z,1005.84
2019-05-19T06:15:02.013Z,1005.83
2019-05-19T06:16:02.221Z,1005.83
2019-05-19T06:17:02.551Z,1005.83
2019-05-19T06:18:01.811Z,1005.83
2019-05-19T06:19:02.055Z,1005.91
2019-05-19T06:20:04.178Z,1005.91
2019-05-19T06:21:01.868Z,1005.91
2019-05-19T06:22:02.068Z,1005.91
2019-05-19T06:23:01.848Z,1005.81
2019-05-19T06:24:02.086Z,1005.81
2019-05-19T06:25:02.536Z,1005.81
2019-05-19T06:26:02.629Z,1005.81
2019-05-19T06:27:01.824Z,1005.95
2019-05-19T06:28:02.057Z,1005.95
2019-05-19T06:29:02.271Z,1005.95
2019-05-19T06:30:02.509Z,1005.95
2019-05-19T06:31:01.718Z,1005.9
2019-05-19T06:32:01.933Z,1005.9
2019-05-19T06:33:02.121Z,1005.9
2019-05-19T06:34:02.393Z,1005.9
2019-05-19T06:35:03.224Z,1005.93
2019-05-19T06:36:02.554Z,1005.93
2019-05-19T06:37:01.787Z,1005.93
2019-05-19T06:38:02.533Z,1005.93
2019-05-19T06:39:02.212Z,1005.99
2019-05-19T06:40:02.450Z,1005.99
2019-05-19T06:41:01.722Z,1005.99
2019-05-19T06:42:01.917Z,1005.99
2019-05-19T06:43:02.187Z,1006.04
2019-05-19T06:44:03.836Z,1006.04
2019-05-19T06:45:01.806Z,1006.04
2019-05-19T06:46:02.633Z,1006.04
2019-05-19T06:47:01.859Z,1006.02
2019-05-19T06:48:02.028Z,1006.02
2019-05-19T06:49:02.318Z,1006.02
2019-05-19T06:50:02.690Z,1006.02
2019-05-19T06:51:01.757Z,1005.98
2019-05-19T06:52:01.931Z,1005.98
2019-05-19T06:53:14.946Z,1005.98
2019-05-19T06:54:02.421Z,1005.98
2019-05-19T06:55:01.694Z,1006.06
2019-05-19T06:56:01.897Z,1006.06
2019-05-19T06:57:01.766Z,1006.06
2019-05-19T06:58:02.085Z,1006.06
2019-05-19T06:59:02.491Z,1006.06
2019-05-19T07:00:04.758Z,1006.06
2019-05-19T07:01:02.607Z,1006.06
2019-05-19T07:02:01.813Z,1006.06
2019-05-19T07:03:02.043Z,1006.09
2019-05-19T07:04:02.344Z,1006.09
2019-05-19T07:05:02.691Z,1006.09
2019-05-19T07:06:01.714Z,1006.09
2019-05-19T07:07:02.167Z,1005.92
2019-05-19T07:08:02.141Z,1005.92
2019-05-19T07:09:02.337Z,1005.92
2019-05-19T07:10:02.392Z,1005.92
2019-05-19T07:11:02.465Z,1006.16
2019-05-19T07:12:01.676Z,1006.16
2019-05-19T07:13:01.925Z,1006.16
2019-05-19T07:14:03.453Z,1006.16
2019-05-19T07:15:02.422Z,1006.1
2019-05-19T07:16:02.551Z,1006.1
2019-05-19T07:17:01.796Z,1006.1
2019-05-19T07:18:01.895Z,1006.1
2019-05-19T07:19:01.788Z,1006.1
2019-05-19T07:20:02.102Z,1006.1
2019-05-19T07:21:02.173Z,1006.1
2019-05-19T07:22:02.428Z,1006.07
2019-05-19T07:23:02.565Z,1006.07
2019-05-19T07:24:01.778Z,1006.07
2019-05-19T07:25:02.005Z,1006.07
2019-05-19T07:26:02.196Z,1006.04
2019-05-19T07:27:02.518Z,1006.04
2019-05-19T07:28:01.622Z,1006.04
2019-05-19T07:29:01.999Z,1006.04
2019-05-19T07:30:02.377Z,1006.2
2019-05-19T07:31:01.692Z,1006.2
2019-05-19T07:32:01.832Z,1006.2
2019-05-19T07:33:02.041Z,1006.2
2019-05-19T07:34:02.429Z,1006.06
2019-05-19T07:35:02.463Z,1006.06
2019-05-19T07:36:01.623Z,1006.06
2019-05-19T07:37:01.774Z,1006.06
2019-05-19T07:38:02.022Z,1006.04
2019-05-19T07:39:02.191Z,1006.04
2019-05-19T07:40:02.568Z,1006.04
2019-05-19T07:41:02.428Z,1006.04
2019-05-19T07:42:02.577Z,1006.05
2019-05-19T07:43:01.801Z,1006.05
2019-05-19T07:44:01.942Z,1006.05
2019-05-19T07:45:02.327Z,1006.05
2019-05-19T07:46:02.500Z,1006.13
2019-05-19T07:47:01.651Z,1006.13
2019-05-19T07:48:01.888Z,1006.13
2019-05-19T07:49:02.073Z,1006.13
2019-05-19T07:50:02.279Z,1006.08
2019-05-19T07:51:02.841Z,1006.08
2019-05-19T07:52:01.632Z,1006.08
2019-05-19T07:53:01.921Z,1006.08
2019-05-19T07:54:02.117Z,1006.17
2019-05-19T07:55:02.120Z,1006.17
2019-05-19T07:56:02.306Z,1006.17
2019-05-19T07:57:02.475Z,1006.17
2019-05-19T07:58:01.680Z,1006.26
2019-05-19T07:59:01.873Z,1006.26
2019-05-19T08:00:04.469Z,1006.26
2019-05-19T08:01:02.160Z,1006.26
2019-05-19T08:02:02.319Z,1006.26
2019-05-19T08:03:02.506Z,1006.26
2019-05-19T08:04:01.788Z,1006.26
2019-05-19T08:05:02.191Z,1006.26
2019-05-19T08:06:02.918Z,1006.3
2019-05-19T08:07:02.481Z,1006.3
2019-05-19T08:08:01.711Z,1006.3
2019-05-19T08:09:01.888Z,1006.3
2019-05-19T08:10:02.304Z,1006.2
2019-05-19T08:11:02.395Z,1006.2
2019-05-19T08:12:02.161Z,1006.2
2019-05-19T08:13:02.384Z,1006.2
2019-05-19T08:14:02.469Z,1006.38
2019-05-19T08:15:01.970Z,1006.38
2019-05-19T08:16:01.884Z,1006.38
2019-05-19T08:17:02.104Z,1006.38
2019-05-19T08:18:01.920Z,1006.42
2019-05-19T08:19:01.795Z,1006.42
2019-05-19T08:20:02.007Z,1006.42
2019-05-19T08:21:02.178Z,1006.42
2019-05-19T08:22:02.490Z,1006.31
2019-05-19T08:23:02.726Z,1006.31
2019-05-19T08:24:02.013Z,1006.31
2019-05-19T08:25:02.268Z,1006.31
2019-05-19T08:26:02.437Z,1006.41
2019-05-19T08:27:02.690Z,1006.41
2019-05-19T08:28:09.364Z,1006.41
2019-05-19T08:29:02.025Z,1006.41
2019-05-19T08:30:02.293Z,1006.41
2019-05-19T08:31:02.177Z,1006.41
2019-05-19T08:32:02.327Z,1006.41
2019-05-19T08:33:02.721Z,1006.41
2019-05-19T08:34:01.752Z,1006.47
2019-05-19T08:35:04.727Z,1006.47
2019-05-19T08:36:02.054Z,1006.47
2019-05-19T08:37:02.365Z,1006.47
2019-05-19T08:38:02.038Z,1006.51
2019-05-19T08:39:02.174Z,1006.51
2019-05-19T08:40:02.398Z,1006.51
2019-05-19T08:41:02.545Z,1006.51
2019-05-19T08:42:01.705Z,1006.4
2019-05-19T08:43:01.929Z,1006.4
2019-05-19T08:44:02.193Z,1006.4
2019-05-19T08:45:02.376Z,1006.4
2019-05-19T08:46:02.653Z,1006.45
2019-05-19T08:47:01.821Z,1006.45
2019-05-19T08:48:02.067Z,1006.45
2019-05-19T08:49:02.388Z,1006.45
2019-05-19T08:50:02.629Z,1006.43
2019-05-19T08:51:01.825Z,1006.43
2019-05-19T08:52:02.601Z,1006.43
2019-05-19T08:53:01.808Z,1006.43
2019-05-19T08:54:18.809Z,1006.54
2019-05-19T08:55:02.284Z,1006.54
2019-05-19T08:56:02.485Z,1006.54
2019-05-19T08:57:01.694Z,1006.54
2019-05-19T08:58:02.058Z,1006.37
2019-05-19T08:59:02.255Z,1006.37
2019-05-19T09:00:05.319Z,1006.37
2019-05-19T09:01:02.092Z,1006.37
2019-05-19T09:02:02.434Z,1006.41
2019-05-19T09:03:03.450Z,1006.41
2019-05-19T09:04:01.773Z,1006.41
2019-05-19T09:05:02.453Z,1006.44
2019-05-19T09:06:02.633Z,1006.44
2019-05-19T09:07:01.838Z,1006.44
2019-05-19T09:08:02.043Z,1006.44
2019-05-19T09:09:02.289Z,1006.37
2019-05-19T09:10:02.584Z,1006.37
2019-05-19T09:11:01.793Z,1006.37
2019-05-19T09:12:01.955Z,1006.37
2019-05-19T09:13:01.896Z,1006.47
2019-05-19T09:14:01.919Z,1006.47
2019-05-19T09:15:02.241Z,1006.47
2019-05-19T09:16:02.319Z,1006.47
2019-05-19T09:17:02.774Z,1006.47
2019-05-19T09:18:01.921Z,1006.47
2019-05-19T09:19:02.319Z,1006.47
2019-05-19T09:20:03.274Z,1006.47
2019-05-19T09:21:01.683Z,1006.38
2019-05-19T09:22:02.041Z,1006.38
2019-05-19T09:23:02.064Z,1006.38
2019-05-19T09:24:02.261Z,1006.38
2019-05-19T09:25:02.704Z,1006.45
2019-05-19T09:26:01.820Z,1006.45
2019-05-19T09:27:02.102Z,1006.45
2019-05-19T09:28:02.291Z,1006.45
2019-05-19T09:29:02.188Z,1006.52
2019-05-19T09:30:02.471Z,1006.52
2019-05-19T09:31:02.620Z,1006.52
2019-05-19T09:32:02.073Z,1006.52
2019-05-19T09:33:02.121Z,1006.54
2019-05-19T09:34:02.317Z,1006.54
2019-05-19T09:35:02.586Z,1006.54
2019-05-19T09:36:01.694Z,1006.54
2019-05-19T09:37:02.011Z,1006.46
2019-05-19T09:38:02.088Z,1006.46
2019-05-19T09:39:02.376Z,1006.46
2019-05-19T09:40:02.663Z,1006.46
2019-05-19T09:41:01.782Z,1006.41
2019-05-19T09:42:02.021Z,1006.41
2019-05-19T09:43:02.224Z,1006.41
2019-05-19T09:44:02.384Z,1006.41
2019-05-19T09:45:01.687Z,1006.48
2019-05-19T09:46:01.959Z,1006.48
2019-05-19T09:47:02.152Z,1006.48
2019-05-19T09:48:02.334Z,1006.48
2019-05-19T09:49:02.550Z,1006.4
2019-05-19T09:50:02.567Z,1006.4
2019-05-19T09:51:01.881Z,1006.4
2019-05-19T09:52:02.235Z,1006.4
2019-05-19T09:53:02.268Z,1006.47
2019-05-19T09:54:02.457Z,1006.47
2019-05-19T09:55:02.671Z,1006.47
2019-05-19T09:56:01.906Z,1006.47
2019-05-19T09:57:02.195Z,1006.37
2019-05-19T09:58:02.267Z,1006.37
2019-05-19T09:59:02.325Z,1006.37
2019-05-19T10:00:04.218Z,1006.37
2019-05-19T10:01:01.979Z,1006.37
2019-05-19T10:02:02.173Z,1006.37
2019-05-19T10:03:02.397Z,1006.37
2019-05-19T10:04:02.582Z,1006.37
2019-05-19T10:05:01.924Z,1006.43
2019-05-19T10:06:02.237Z,1006.43
2019-05-19T10:07:04.248Z,1006.43
2019-05-19T10:08:02.496Z,1006.43
2019-05-19T10:09:01.710Z,1006.47
2019-05-19T10:10:02.160Z,1006.47
2019-05-19T10:11:02.245Z,1006.47
2019-05-19T10:12:02.343Z,1006.47
2019-05-19T10:13:02.529Z,1006.57
2019-05-19T10:14:01.931Z,1006.57
2019-05-19T10:15:03.421Z,1006.57
2019-05-19T10:16:02.302Z,1006.57
2019-05-19T10:17:02.597Z,1006.48
2019-05-19T10:18:01.834Z,1006.48
2019-05-19T10:19:01.986Z,1006.48
2019-05-19T10:20:02.431Z,1006.48
2019-05-19T10:21:02.489Z,1006.46
2019-05-19T10:22:01.799Z,1006.46
2019-05-19T10:23:02.108Z,1006.46
2019-05-19T10:24:02.405Z,1006.46
2019-05-19T10:25:22.854Z,1006.51
2019-05-19T10:26:01.819Z,1006.51
2019-05-19T10:27:01.790Z,1006.51
2019-05-19T10:28:02.079Z,1006.51
2019-05-19T10:29:02.280Z,1006.49
2019-05-19T10:30:02.608Z,1006.49
2019-05-19T10:31:01.905Z,1006.49
2019-05-19T10:32:02.085Z,1006.49
2019-05-19T10:33:02.312Z,1006.38
2019-05-19T10:34:02.580Z,1006.38
2019-05-19T10:35:02.241Z,1006.38
2019-05-19T10:36:02.094Z,1006.38
2019-05-19T10:37:02.255Z,1006.38
2019-05-19T10:38:02.505Z,1006.38
2019-05-19T10:39:01.740Z,1006.38
2019-05-19T10:40:01.990Z,1006.38
2019-05-19T10:41:02.174Z,1006.45
2019-05-19T10:42:03.263Z,1006.45
2019-05-19T10:43:02.699Z,1006.45
2019-05-19T10:44:01.810Z,1006.45
2019-05-19T10:45:02.043Z,1006.54
2019-05-19T10:46:02.014Z,1006.54
2019-05-19T10:47:02.042Z,1006.54
2019-05-19T10:48:02.169Z,1006.38
2019-05-19T10:49:02.377Z,1006.38
2019-05-19T10:50:02.665Z,1006.38
2019-05-19T10:51:01.870Z,1006.38
2019-05-19T10:52:01.933Z,1006.43
2019-05-19T10:53:02.671Z,1006.43
2019-05-19T10:54:02.022Z,1006.43
2019-05-19T10:55:02.384Z,1006.43
2019-05-19T10:56:02.534Z,1006.42
2019-05-19T10:57:01.845Z,1006.42
2019-05-19T10:58:02.074Z,1006.42
2019-05-19T10:59:02.308Z,1006.42
2019-05-19T11:00:04.590Z,1006.41
2019-05-19T11:01:02.434Z,1006.41
2019-05-19T11:02:01.707Z,1006.41
2019-05-19T11:03:02.021Z,1006.41
2019-05-19T11:04:02.207Z,1006.44
2019-05-19T11:05:02.498Z,1006.44
2019-05-19T11:06:01.957Z,1006.44
2019-05-19T11:07:02.005Z,1006.44
2019-05-19T11:08:02.302Z,1006.45
2019-05-19T11:09:02.407Z,1006.45
2019-05-19T11:10:02.699Z,1006.45
2019-05-19T11:11:01.913Z,1006.45
2019-05-19T11:12:02.047Z,1006.32
2019-05-19T11:13:02.345Z,1006.32
2019-05-19T11:14:02.494Z,1006.32
2019-05-19T11:15:01.858Z,1006.32
2019-05-19T11:16:01.914Z,1006.37
2019-05-19T11:17:02.233Z,1006.37
2019-05-19T11:18:02.382Z,1006.37
2019-05-19T11:19:02.629Z,1006.37
2019-05-19T11:20:02.385Z,1006.34
2019-05-19T11:21:02.124Z,1006.34
2019-05-19T11:22:02.015Z,1006.34
2019-05-19T11:23:02.079Z,1006.34
2019-05-19T11:24:02.081Z,1006.34
2019-05-19T11:25:02.378Z,1006.34
2019-05-19T11:26:02.522Z,1006.34
2019-05-19T11:27:01.790Z,1006.34
2019-05-19T11:28:01.989Z,1006.43
2019-05-19T11:29:02.260Z,1006.43
2019-05-19T11:30:02.461Z,1006.43
2019-05-19T11:31:01.667Z,1006.43
2019-05-19T11:32:02.020Z,1006.35
2019-05-19T11:33:02.163Z,1006.35
2019-05-19T11:34:02.431Z,1006.35
2019-05-19T11:35:02.683Z,1006.35
2019-05-19T11:36:01.918Z,1006.39
2019-05-19T11:37:02.114Z,1006.39
2019-05-19T11:38:02.334Z,1006.39
2019-05-19T11:39:02.566Z,1006.39
2019-05-19T11:40:01.713Z,1006.4
2019-05-19T11:41:02.005Z,1006.4
2019-05-19T11:42:01.668Z,1006.4
2019-05-19T11:43:02.102Z,1006.4
2019-05-19T11:44:02.107Z,1006.49
2019-05-19T11:45:02.390Z,1006.49
2019-05-19T11:46:02.595Z,1006.49
2019-05-19T11:47:01.828Z,1006.49
2019-05-19T11:48:02.087Z,1006.46
2019-05-19T11:49:02.346Z,1006.46
2019-05-19T11:50:02.617Z,1006.46
2019-05-19T11:51:01.927Z,1006.46
2019-05-19T11:52:02.074Z,1006.45
2019-05-19T11:53:02.324Z,1006.45
2019-05-19T11:54:02.638Z,1006.45
2019-05-19T11:55:01.993Z,1006.45
2019-05-19T11:56:11.341Z,1006.54
2019-05-19T11:57:02.424Z,1006.54
2019-05-19T11:58:02.616Z,1006.54
2019-05-19T11:59:01.698Z,1006.54
2019-05-19T12:00:06.523Z,1006.56
2019-05-19T12:01:02.300Z,1006.56
2019-05-19T12:02:02.424Z,1006.56
2019-05-19T12:03:02.579Z,1006.56
2019-05-19T12:04:01.826Z,1006.52
2019-05-19T12:05:02.325Z,1006.52
2019-05-19T12:06:02.423Z,1006.52
2019-05-19T12:07:01.682Z,1006.52
2019-05-19T12:08:01.900Z,1006.42